ADDS METAR Data INFO
IDs: Format: Raw Decoded Include TAF

Data at: 1244 UTC 19 Oct 2017

KBOS 191154Z 19005KT 7SM FEW250 12/11 A3022 RMK AO2 SLP234 T01220111 10122 20111 55005
KBOS 191054Z 23007KT 10SM FEW250 12/11 A3022 RMK AO2 SLP233 T01170106
KBOS 190954Z 19003KT 9SM CLR 12/10 A3023 RMK AO2 SLP237 T01170100
KBOS 190854Z 22006KT 10SM CLR 11/09 A3024 RMK AO2 SLP239 T01110089 55004
KBOS 190754Z 21005KT 10SM CLR 12/09 A3023 RMK AO2 SLP237 T01170089
KBOS 190654Z 20005KT 10SM CLR 12/08 A3024 RMK AO2 SLP240 T01170083
KBOS 190554Z 21008KT 10SM CLR 12/08 A3025 RMK AO2 SLP243 T01170083 10172 20117 56007
KBOS 190454Z 18007KT 10SM CLR 12/08 A3025 RMK AO2 SLP243 T01220083 402220083
KBOS 190354Z 20007KT 10SM CLR 13/08 A3026 RMK AO2 SLP247 T01280083
KBOS 190254Z 17004KT 10SM CLR 14/08 A3027 RMK AO2 SLP250 T01390078 51006
KBOS 190154Z 19004KT 10SM CLR 14/08 A3027 RMK AO2 SLP248 T01440083
KBOS 190054Z 21004KT 10SM CLR 16/08 A3026 RMK AO2 SLP248 T01560083
KBOS 182354Z 15004KT 10SM FEW250 17/06 A3025 RMK AO2 SLP244 T01670061 10222 20167 51012
KBOS 182254Z 24005KT 10SM FEW250 19/04 A3025 RMK AO2 SLP242 T01940044
KBOS 182154Z 24007KT 10SM FEW250 20/04 A3023 RMK AO2 SLP236 T02000039
KBOS 182054Z 26005KT 10SM FEW250 21/03 A3022 RMK AO2 SLP232 T02110033 55000
KBOS 181954Z 29005KT 10SM FEW250 22/03 A3021 RMK AO2 SLP230 T02220033
KBOS 181854Z 26009KT 10SM FEW250 22/04 A3021 RMK AO2 SLP230 T02170039
KBOS 181754Z 25007KT 10SM FEW250 21/06 A3022 RMK AO2 SLP232 T02110056 10211 20111 58015
KBOS 181654Z VRB06KT 10SM FEW250 20/06 A3024 RMK AO2 SLP238 T02000056
KBOS 181554Z 28009KT 10SM FEW250 19/06 A3026 RMK AO2 SLP246 T01940056
KBOS 181454Z 27011KT 10SM FEW250 18/06 A3026 RMK AO2 SLP247 T01780061 51012
KBOS 181354Z 25008KT 10SM FEW250 16/05 A3026 RMK AO2 SLP245 T01560050
KBOS 181254Z 27008KT 10SM FEW250 13/04 A3025 RMK AO2 SLP242 T01330039
KBOS 181154Z 23010KT 10SM FEW250 11/03 A3023 RMK AO2 SLP235 T01110033 10111 20083 53007
KBOS 181054Z 24011KT 10SM CLR 10/03 A3021 RMK AO2 SLP230 T01000033
KBOS 180954Z 24013KT 10SM CLR 09/03 A3021 RMK AO2 SLP228 T00940033
KBOS 180854Z 25012KT 10SM FEW250 10/04 A3021 RMK AO2 SLP228 T01000039 55001
KBOS 180754Z 23012KT 10SM CLR 09/04 A3019 RMK AO2 SLP223 T00940039
KBOS 180654Z 23013KT 10SM CLR 09/04 A3020 RMK AO2 SLP225 T00940044
KBOS 180554Z 22014KT 10SM CLR 09/04 A3021 RMK AO2 SLP228 T00890039 10106 20083 58010
KBOS 180454Z 22011KT 10SM CLR 08/03 A3023 RMK AO2 SLP236 T00830033 401440044
KBOS 180354Z 22014G19KT 10SM CLR 09/03 A3023 RMK AO2 SLP237 T00890033
KBOS 180254Z 22009KT 10SM CLR 09/03 A3024 RMK AO2 SLP238 T00890028 50004
KBOS 180154Z 22013G22KT 10SM CLR 09/03 A3024 RMK AO2 SLP240 T00940028
KBOS 180054Z 22014KT 10SM CLR 10/03 A3024 RMK AO2 SLP238 T01000028